sensor_id;sensor_type;location;lat;lon;timestamp;pressure;altitude;pressure_sealevel;temperature;humidity
72585;BME280;60618;40.084;32.908;2023-04-04T00:02:11;89055.78;;;12.00;56.81
72585;BME280;60618;40.084;32.908;2023-04-04T00:04:38;89057.50;;;11.92;57.01
72585;BME280;60618;40.084;32.908;2023-04-04T00:07:05;89052.16;;;11.92;57.06
72585;BME280;60618;40.084;32.908;2023-04-04T00:09:32;89043.94;;;11.90;57.21
72585;BME280;60618;40.084;32.908;2023-04-04T00:11:59;89040.81;;;11.80;57.95
72585;BME280;60618;40.084;32.908;2023-04-04T00:14:26;89034.00;;;11.74;58.13
72585;BME280;60618;40.084;32.908;2023-04-04T00:16:52;89026.97;;;11.76;57.90
72585;BME280;60618;40.084;32.908;2023-04-04T00:19:19;89035.22;;;11.78;58.22
72585;BME280;60618;40.084;32.908;2023-04-04T00:21:46;89039.34;;;11.68;58.47
72585;BME280;60618;40.084;32.908;2023-04-04T00:24:13;89033.06;;;11.65;58.23
72585;BME280;60618;40.084;32.908;2023-04-04T00:26:40;89035.00;;;11.71;58.41
72585;BME280;60618;40.084;32.908;2023-04-04T00:29:06;89029.41;;;11.74;58.35
72585;BME280;60618;40.084;32.908;2023-04-04T00:31:33;89027.72;;;11.71;58.42
72585;BME280;60618;40.084;32.908;2023-04-04T00:34:00;89034.75;;;11.69;58.68
72585;BME280;60618;40.084;32.908;2023-04-04T00:36:27;89040.81;;;11.63;58.91
72585;BME280;60618;40.084;32.908;2023-04-04T00:38:54;89038.38;;;11.65;58.74
72585;BME280;60618;40.084;32.908;2023-04-04T00:41:21;89039.84;;;11.66;58.32
72585;BME280;60618;40.084;32.908;2023-04-04T00:43:48;89042.28;;;11.70;58.58
72585;BME280;60618;40.084;32.908;2023-04-04T00:46:15;89036.22;;;11.70;58.40
72585;BME280;60618;40.084;32.908;2023-04-04T00:48:43;89032.31;;;11.71;57.97
72585;BME280;60618;40.084;32.908;2023-04-04T00:51:09;89025.28;;;11.73;58.32
72585;BME280;60618;40.084;32.908;2023-04-04T00:53:36;89020.44;;;11.72;58.53
72585;BME280;60618;40.084;32.908;2023-04-04T00:56:03;89018.22;;;11.76;58.54
72585;BME280;60618;40.084;32.908;2023-04-04T00:58:30;89018.22;;;11.76;57.78
72585;BME280;60618;40.084;32.908;2023-04-04T01:00:58;89016.56;;;11.73;58.33
72585;BME280;60618;40.084;32.908;2023-04-04T01:03:25;89013.88;;;11.73;58.66
72585;BME280;60618;40.084;32.908;2023-04-04T01:05:53;89007.38;;;11.62;59.12
72585;BME280;60618;40.084;32.908;2023-04-04T01:08:23;89012.94;;;11.64;58.67
72585;BME280;60618;40.084;32.908;2023-04-04T01:10:51;89006.19;;;11.52;58.91
72585;BME280;60618;40.084;32.908;2023-04-04T01:13:18;88999.16;;;11.49;59.16
72585;BME280;60618;40.084;32.908;2023-04-04T01:15:46;89006.91;;;11.47;59.59
72585;BME280;60618;40.084;32.908;2023-04-04T01:18:16;89011.53;;;11.47;59.19
72585;BME280;60618;40.084;32.908;2023-04-04T01:21:09;89008.59;;;11.56;58.52
72585;BME280;60618;40.084;32.908;2023-04-04T01:23:58;89017.31;;;11.56;58.62
72585;BME280;60618;40.084;32.908;2023-04-04T01:26:25;89016.38;;;11.48;59.07
72585;BME280;60618;40.084;32.908;2023-04-04T01:28:55;89017.59;;;11.36;59.25
72585;BME280;60618;40.084;32.908;2023-04-04T01:31:41;89023.94;;;11.33;59.08
72585;BME280;60618;40.084;32.908;2023-04-04T01:34:16;89012.50;;;11.38;58.61
72585;BME280;60618;40.084;32.908;2023-04-04T01:37:06;89017.59;;;11.36;59.13
72585;BME280;60618;40.084;32.908;2023-04-04T01:39:58;89017.13;;;11.43;58.95
72585;BME280;60618;40.084;32.908;2023-04-04T01:42:27;89013.00;;;11.42;58.67
72585;BME280;60618;40.084;32.908;2023-04-04T01:44:55;89007.38;;;11.57;58.64
72585;BME280;60618;40.084;32.908;2023-04-04T01:47:22;89014.16;;;11.63;58.14
72585;BME280;60618;40.084;32.908;2023-04-04T01:49:49;89011.03;;;11.48;58.81
72585;BME280;60618;40.084;32.908;2023-04-04T01:52:16;89011.03;;;11.48;58.47
72585;BME280;60618;40.084;32.908;2023-04-04T01:54:43;89007.69;;;11.25;57.76
72585;BME280;60618;40.084;32.908;2023-04-04T01:57:10;89013.78;;;11.15;58.01
72585;BME280;60618;40.084;32.908;2023-04-04T01:59:37;89000.63;;;11.50;52.81
72585;BME280;60618;40.084;32.908;2023-04-04T02:02:04;88991.88;;;11.55;54.00
72585;BME280;60618;40.084;32.908;2023-04-04T02:04:30;88990.69;;;11.45;54.23
72585;BME280;60618;40.084;32.908;2023-04-04T02:06:57;88988.28;;;11.42;53.87
72585;BME280;60618;40.084;32.908;2023-04-04T02:09:24;88986.06;;;11.46;54.24
72585;BME280;60618;40.084;32.908;2023-04-04T02:11:51;88976.88;;;11.41;55.46
72585;BME280;60618;40.084;32.908;2023-04-04T02:14:18;88980.28;;;11.42;54.74
72585;BME280;60618;40.084;32.908;2023-04-04T02:16:45;88982.47;;;11.37;55.18
72585;BME280;60618;40.084;32.908;2023-04-04T02:19:12;88979.31;;;11.28;55.98
72585;BME280;60618;40.084;32.908;2023-04-04T02:21:39;88978.56;;;11.44;55.74
72585;BME280;60618;40.084;32.908;2023-04-04T02:24:06;88984.19;;;11.18;56.46
72585;BME280;60618;40.084;32.908;2023-04-04T02:26:33;88978.59;;;11.22;56.40
72585;BME280;60618;40.084;32.908;2023-04-04T02:29:00;88978.31;;;11.53;55.02
72585;BME280;60618;40.084;32.908;2023-04-04T02:31:27;88976.34;;;11.59;55.05
72585;BME280;60618;40.084;32.908;2023-04-04T02:33:54;88978.31;;;11.53;55.04
72585;BME280;60618;40.084;32.908;2023-04-04T02:36:21;88976.13;;;11.52;55.03
72585;BME280;60618;40.084;32.908;2023-04-04T02:38:48;88977.13;;;11.37;53.96
72585;BME280;60618;40.084;32.908;2023-04-04T02:41:15;88970.84;;;11.29;54.34
72585;BME280;60618;40.084;32.908;2023-04-04T02:43:42;88973.06;;;11.08;54.63
72585;BME280;60618;40.084;32.908;2023-04-04T02:46:09;88974.00;;;11.22;54.50
72585;BME280;60618;40.084;32.908;2023-04-04T02:48:47;88968.66;;;11.22;54.34
72585;BME280;60618;40.084;32.908;2023-04-04T02:51:14;88968.47;;;11.15;53.37
72585;BME280;60618;40.084;32.908;2023-04-04T02:53:41;88964.63;;;10.82;52.13
72585;BME280;60618;40.084;32.908;2023-04-04T02:56:08;88972.09;;;10.78;52.12
72585;BME280;60618;40.084;32.908;2023-04-04T02:58:35;88962.44;;;10.75;51.04
72585;BME280;60618;40.084;32.908;2023-04-04T03:01:02;88962.91;;;10.68;51.08
72585;BME280;60618;40.084;32.908;2023-04-04T03:03:28;88957.13;;;10.64;50.32
72585;BME280;60618;40.084;32.908;2023-04-04T03:05:57;88974.06;;;10.61;50.73
72585;BME280;60618;40.084;32.908;2023-04-04T03:08:24;88969.94;;;10.65;50.86
72585;BME280;60618;40.084;32.908;2023-04-04T03:10:51;88964.63;;;10.65;51.52
72585;BME280;60618;40.084;32.908;2023-04-04T03:13:17;88968.97;;;10.85;51.20
72585;BME280;60618;40.084;32.908;2023-04-04T03:15:44;88966.53;;;10.93;50.61
72585;BME280;60618;40.084;32.908;2023-04-04T03:18:13;88967.03;;;10.63;50.65
72585;BME280;60618;40.084;32.908;2023-04-04T03:20:40;88960.25;;;10.51;49.84
72585;BME280;60618;40.084;32.908;2023-04-04T03:23:07;88963.63;;;10.40;50.98
72585;BME280;60618;40.084;32.908;2023-04-04T03:25:34;88957.59;;;10.34;51.01
72585;BME280;60618;40.084;32.908;2023-04-04T03:28:08;88966.97;;;10.18;51.77
72585;BME280;60618;40.084;32.908;2023-04-04T03:30:35;88963.34;;;10.16;51.35
72585;BME280;60618;40.084;32.908;2023-04-04T03:33:03;88964.78;;;10.17;52.24
72585;BME280;60618;40.084;32.908;2023-04-04T03:35:30;88972.06;;;10.22;51.80
72585;BME280;60618;40.084;32.908;2023-04-04T03:38:00;88977.13;;;10.20;51.00
72585;BME280;60618;40.084;32.908;2023-04-04T03:40:27;88970.41;;;10.25;50.30
72585;BME280;60618;40.084;32.908;2023-04-04T03:42:54;88973.78;;;10.31;50.52
72585;BME280;60618;40.084;32.908;2023-04-04T03:45:21;88982.00;;;10.27;50.12
72585;BME280;60618;40.084;32.908;2023-04-04T03:47:47;88979.06;;;10.19;50.42
72585;BME280;60618;40.084;32.908;2023-04-04T03:50:14;88971.78;;;10.14;50.39
72585;BME280;60618;40.084;32.908;2023-04-04T03:52:41;88981.69;;;10.14;50.17
72585;BME280;60618;40.084;32.908;2023-04-04T03:55:08;88975.91;;;10.15;49.45
72585;BME280;60618;40.084;32.908;2023-04-04T03:57:35;88973.06;;;10.25;48.13
72585;BME280;60618;40.084;32.908;2023-04-04T04:00:03;88974.53;;;10.42;47.68
72585;BME280;60618;40.084;32.908;2023-04-04T04:02:30;88979.63;;;10.51;47.04
72585;BME280;60618;40.084;32.908;2023-04-04T04:04:57;88983.97;;;10.55;46.12
72585;BME280;60618;40.084;32.908;2023-04-04T04:07:24;88986.88;;;10.57;46.24
72585;BME280;60618;40.084;32.908;2023-04-04T04:09:51;88976.00;;;10.66;44.94
72585;BME280;60618;40.084;32.908;2023-04-04T04:12:18;88986.91;;;10.62;45.85
72585;BME280;60618;40.084;32.908;2023-04-04T04:14:45;88985.19;;;10.65;45.29
72585;BME280;60618;40.084;32.908;2023-04-04T04:17:12;88987.84;;;10.65;45.42
72585;BME280;60618;40.084;32.908;2023-04-04T04:19:38;88989.31;;;10.71;44.59
72585;BME280;60618;40.084;32.908;2023-04-04T04:22:05;88992.47;;;10.81;45.01
72585;BME280;60618;40.084;32.908;2023-04-04T04:24:32;88994.88;;;10.96;45.94
72585;BME280;60618;40.084;32.908;2023-04-04T04:26:59;88980.81;;;11.06;44.75
72585;BME280;60618;40.084;32.908;2023-04-04T04:29:26;88988.78;;;11.12;46.22
72585;BME280;60618;40.084;32.908;2023-04-04T04:31:54;88994.13;;;11.23;45.11
72585;BME280;60618;40.084;32.908;2023-04-04T04:34:21;88984.69;;;10.94;45.44
72585;BME280;60618;40.084;32.908;2023-04-04T04:36:48;88985.44;;;10.89;45.29
72585;BME280;60618;40.084;32.908;2023-04-04T04:39:15;88980.34;;;10.80;45.47
72585;BME280;60618;40.084;32.908;2023-04-04T04:41:42;88989.28;;;10.94;46.37
72585;BME280;60618;40.084;32.908;2023-04-04T04:44:09;88982.28;;;10.91;45.67
72585;BME280;60618;40.084;32.908;2023-04-04T04:46:36;88984.22;;;11.01;45.81
72585;BME280;60618;40.084;32.908;2023-04-04T04:49:03;88982.47;;;11.21;46.75
72585;BME280;60618;40.084;32.908;2023-04-04T04:51:30;88979.34;;;11.17;45.40
72585;BME280;60618;40.084;32.908;2023-04-04T04:53:57;88991.47;;;11.06;46.13
72585;BME280;60618;40.084;32.908;2023-04-04T04:56:24;88981.06;;;10.97;46.87
72585;BME280;60618;40.084;32.908;2023-04-04T04:58:50;88984.22;;;10.85;47.55
72585;BME280;60618;40.084;32.908;2023-04-04T05:01:17;88985.41;;;10.95;47.34
72585;BME280;60618;40.084;32.908;2023-04-04T05:03:44;88977.66;;;11.08;48.65
72585;BME280;60618;40.084;32.908;2023-04-04T05:06:11;88971.09;;;11.26;48.25
72585;BME280;60618;40.084;32.908;2023-04-04T05:08:38;88978.84;;;11.35;47.06
72585;BME280;60618;40.084;32.908;2023-04-04T05:11:05;88970.50;;;11.66;46.77
72585;BME280;60618;40.084;32.908;2023-04-04T05:13:32;88965.78;;;11.95;45.06
72585;BME280;60618;40.084;32.908;2023-04-04T05:15:59;88966.84;;;12.28;44.72
72585;BME280;60618;40.084;32.908;2023-04-04T05:18:26;88963.34;;;12.44;43.95
72585;BME280;60618;40.084;32.908;2023-04-04T05:20:53;88960.19;;;12.45;44.21
72585;BME280;60618;40.084;32.908;2023-04-04T05:23:20;88966.63;;;12.61;44.76
72585;BME280;60618;40.084;32.908;2023-04-04T05:25:51;88964.97;;;12.58;44.79
72585;BME280;60618;40.084;32.908;2023-04-04T05:28:21;88954.91;;;12.70;43.50
72585;BME280;60618;40.084;32.908;2023-04-04T05:30:48;88952.84;;;12.87;42.70
72585;BME280;60618;40.084;32.908;2023-04-04T05:33:15;88944.28;;;12.94;43.58
72585;BME280;60618;40.084;32.908;2023-04-04T05:35:42;88941.94;;;12.85;42.46
72585;BME280;60618;40.084;32.908;2023-04-04T05:38:09;88945.19;;;12.72;42.98
72585;BME280;60618;40.084;32.908;2023-04-04T05:40:35;88940.63;;;12.67;41.65
72585;BME280;60618;40.084;32.908;2023-04-04T05:43:02;88939.38;;;12.68;39.87
72585;BME280;60618;40.084;32.908;2023-04-04T05:45:30;88932.50;;;12.78;39.44
72585;BME280;60618;40.084;32.908;2023-04-04T05:47:57;88939.06;;;12.77;39.72
72585;BME280;60618;40.084;32.908;2023-04-04T05:50:24;88925.63;;;12.89;41.62
72585;BME280;60618;40.084;32.908;2023-04-04T05:52:54;88935.84;;;12.85;39.76
72585;BME280;60618;40.084;32.908;2023-04-04T05:55:21;88936.84;;;12.82;41.11
72585;BME280;60618;40.084;32.908;2023-04-04T05:57:51;88929.94;;;12.92;39.91
72585;BME280;60618;40.084;32.908;2023-04-04T06:00:18;88929.59;;;13.06;39.97
72585;BME280;60618;40.084;32.908;2023-04-04T06:02:45;88938.81;;;13.35;40.13
72585;BME280;60618;40.084;32.908;2023-04-04T06:05:12;88937.91;;;13.27;38.95
72585;BME280;60618;40.084;32.908;2023-04-04T06:07:39;88934.91;;;13.37;39.14
72585;BME280;60618;40.084;32.908;2023-04-04T06:10:06;88925.56;;;13.49;40.30
72585;BME280;60618;40.084;32.908;2023-04-04T06:12:33;88922.94;;;13.43;40.16
72585;BME280;60618;40.084;32.908;2023-04-04T06:15:00;88925.84;;;13.64;39.98
72585;BME280;60618;40.084;32.908;2023-04-04T06:17:27;88929.00;;;13.87;39.86
72585;BME280;60618;40.084;32.908;2023-04-04T06:19:54;88935.88;;;14.01;40.17
72585;BME280;60618;40.084;32.908;2023-04-04T06:22:21;88936.19;;;14.16;39.39
72585;BME280;60618;40.084;32.908;2023-04-04T06:24:48;88927.56;;;14.24;37.47
72585;BME280;60618;40.084;32.908;2023-04-04T06:27:15;88924.00;;;14.34;39.36
72585;BME280;60618;40.084;32.908;2023-04-04T06:29:42;88933.28;;;14.52;37.57
72585;BME280;60618;40.084;32.908;2023-04-04T06:32:08;88930.81;;;14.54;37.78
72585;BME280;60618;40.084;32.908;2023-04-04T06:34:35;88933.91;;;14.90;39.38
72585;BME280;60618;40.084;32.908;2023-04-04T06:37:02;88940.38;;;15.14;35.31
72585;BME280;60618;40.084;32.908;2023-04-04T06:39:29;88943.06;;;15.14;36.75
72585;BME280;60618;40.084;32.908;2023-04-04T06:41:56;88936.69;;;15.30;34.65
72585;BME280;60618;40.084;32.908;2023-04-04T06:44:23;88948.09;;;15.04;30.96
72585;BME280;60618;40.084;32.908;2023-04-04T06:46:50;88933.69;;;15.20;32.43
72585;BME280;60618;40.084;32.908;2023-04-04T06:49:17;88922.31;;;15.01;35.15
72585;BME280;60618;40.084;32.908;2023-04-04T06:51:44;88942.88;;;15.12;33.37
72585;BME280;60618;40.084;32.908;2023-04-04T06:54:11;88931.56;;;15.00;32.84
72585;BME280;60618;40.084;32.908;2023-04-04T06:56:38;88923.75;;;15.02;31.65
72585;BME280;60618;40.084;32.908;2023-04-04T06:59:05;88911.03;;;14.89;31.63
72585;BME280;60618;40.084;32.908;2023-04-04T07:01:32;88913.44;;;15.06;31.90
72585;BME280;60618;40.084;32.908;2023-04-04T07:03:59;88917.84;;;14.90;31.88
72585;BME280;60618;40.084;32.908;2023-04-04T07:06:26;88942.59;;;14.96;31.04
72585;BME280;60618;40.084;32.908;2023-04-04T07:08:53;88916.00;;;14.98;32.37
72585;BME280;60618;40.084;32.908;2023-04-04T07:11:20;88927.59;;;15.20;32.30
72585;BME280;60618;40.084;32.908;2023-04-04T07:13:47;88922.28;;;15.46;32.10
72585;BME280;60618;40.084;32.908;2023-04-04T07:16:14;88888.59;;;15.45;31.64
72585;BME280;60618;40.084;32.908;2023-04-04T07:18:41;88912.63;;;15.24;31.37
72585;BME280;60618;40.084;32.908;2023-04-04T07:21:08;88905.91;;;15.18;32.77
72585;BME280;60618;40.084;32.908;2023-04-04T07:23:34;88926.25;;;14.81;31.81
72585;BME280;60618;40.084;32.908;2023-04-04T07:26:04;88917.88;;;14.71;31.02
72585;BME280;60618;40.084;32.908;2023-04-04T07:28:31;88922.97;;;14.75;32.52
72585;BME280;60618;40.084;32.908;2023-04-04T07:31:01;88917.22;;;14.84;34.55
72585;BME280;60618;40.084;32.908;2023-04-04T07:33:28;88934.06;;;14.98;32.87
72585;BME280;60618;40.084;32.908;2023-04-04T07:35:56;88917.16;;;15.16;33.18
72585;BME280;60618;40.084;32.908;2023-04-04T07:38:23;88926.25;;;15.26;32.59
72585;BME280;60618;40.084;32.908;2023-04-04T07:40:50;88920.81;;;15.32;33.36
72585;BME280;60618;40.084;32.908;2023-04-04T07:43:17;88907.53;;;14.94;32.91
72585;BME280;60618;40.084;32.908;2023-04-04T07:45:44;88913.53;;;15.00;33.01
72585;BME280;60618;40.084;32.908;2023-04-04T07:48:11;88901.78;;;15.17;35.11
72585;BME280;60618;40.084;32.908;2023-04-04T07:50:38;88903.88;;;15.11;34.63
72585;BME280;60618;40.084;32.908;2023-04-04T07:53:05;88906.72;;;14.99;34.00
72585;BME280;60618;40.084;32.908;2023-04-04T07:55:32;88908.94;;;14.82;34.02
72585;BME280;60618;40.084;32.908;2023-04-04T07:57:59;88915.47;;;14.87;34.27
72585;BME280;60618;40.084;32.908;2023-04-04T08:00:26;88917.13;;;14.90;34.30
72585;BME280;60618;40.084;32.908;2023-04-04T08:02:56;88929.66;;;15.14;34.69
72585;BME280;60618;40.084;32.908;2023-04-04T08:05:24;88910.56;;;15.17;34.56
72585;BME280;60618;40.084;32.908;2023-04-04T08:07:50;88926.44;;;15.15;36.19
72585;BME280;60618;40.084;32.908;2023-04-04T08:10:17;88920.47;;;15.22;35.35
72585;BME280;60618;40.084;32.908;2023-04-04T08:12:44;88929.50;;;14.93;33.83
72585;BME280;60618;40.084;32.908;2023-04-04T08:15:11;88921.63;;;14.82;34.97
72585;BME280;60618;40.084;32.908;2023-04-04T08:17:38;88920.03;;;14.92;35.19
72585;BME280;60618;40.084;32.908;2023-04-04T08:20:06;88915.78;;;14.83;35.72
72585;BME280;60618;40.084;32.908;2023-04-04T08:22:33;88927.50;;;14.80;34.75
72585;BME280;60618;40.084;32.908;2023-04-04T08:24:59;88911.41;;;14.67;34.54
72585;BME280;60618;40.084;32.908;2023-04-04T08:27:26;88920.56;;;14.71;35.72
72585;BME280;60618;40.084;32.908;2023-04-04T08:29:53;88902.97;;;14.76;35.34
72585;BME280;60618;40.084;32.908;2023-04-04T08:32:20;88911.34;;;14.86;35.59
72585;BME280;60618;40.084;32.908;2023-04-04T08:34:47;88907.84;;;14.91;35.65
72585;BME280;60618;40.084;32.908;2023-04-04T08:37:14;88893.94;;;14.92;35.83
72585;BME280;60618;40.084;32.908;2023-04-04T08:39:41;88886.81;;;14.95;35.86
72585;BME280;60618;40.084;32.908;2023-04-04T08:42:08;88878.25;;;14.96;37.52
72585;BME280;60618;40.084;32.908;2023-04-04T08:44:36;88870.63;;;15.00;36.65
72585;BME280;60618;40.084;32.908;2023-04-04T08:47:04;88876.63;;;15.07;34.60
72585;BME280;60618;40.084;32.908;2023-04-04T08:49:39;88860.97;;;15.11;34.39
72585;BME280;60618;40.084;32.908;2023-04-04T08:52:07;88867.31;;;15.08;34.95
72585;BME280;60618;40.084;32.908;2023-04-04T08:54:39;88852.47;;;15.07;35.49
72585;BME280;60618;40.084;32.908;2023-04-04T08:57:06;88864.75;;;15.02;33.91
72585;BME280;60618;40.084;32.908;2023-04-04T08:59:33;88861.44;;;15.09;35.10
72585;BME280;60618;40.084;32.908;2023-04-04T09:02:13;88882.63;;;15.13;35.42
72585;BME280;60618;40.084;32.908;2023-04-04T09:04:42;88868.16;;;15.16;35.81
72585;BME280;60618;40.084;32.908;2023-04-04T09:07:20;88854.13;;;15.10;33.00
72585;BME280;60618;40.084;32.908;2023-04-04T09:09:48;88848.16;;;15.03;35.04
72585;BME280;60618;40.084;32.908;2023-04-04T09:12:16;88847.84;;;15.07;34.03
72585;BME280;60618;40.084;32.908;2023-04-04T09:14:45;88855.59;;;15.11;33.87
72585;BME280;60618;40.084;32.908;2023-04-04T09:17:13;88844.03;;;15.16;35.51
72585;BME280;60618;40.084;32.908;2023-04-04T09:19:40;88850.03;;;15.22;34.64
72585;BME280;60618;40.084;32.908;2023-04-04T09:22:08;88842.16;;;15.24;34.92
72585;BME280;60618;40.084;32.908;2023-04-04T09:24:42;88833.09;;;15.40;34.11
72585;BME280;60618;40.084;32.908;2023-04-04T09:27:10;88846.19;;;15.57;34.37
72585;BME280;60618;40.084;32.908;2023-04-04T09:29:38;88839.56;;;15.45;34.17
72585;BME280;60618;40.084;32.908;2023-04-04T09:32:12;88834.94;;;15.45;34.93
72585;BME280;60618;40.084;32.908;2023-04-04T09:34:40;88818.03;;;15.64;35.90
72585;BME280;60618;40.084;32.908;2023-04-04T09:37:07;88824.38;;;15.87;34.74
72585;BME280;60618;40.084;32.908;2023-04-04T09:39:37;88804.06;;;15.99;34.14
72585;BME280;60618;40.084;32.908;2023-04-04T09:42:05;88812.78;;;15.92;34.34
72585;BME280;60618;40.084;32.908;2023-04-04T09:44:32;88819.72;;;16.22;35.35
72585;BME280;60618;40.084;32.908;2023-04-04T09:47:27;88819.06;;;16.29;32.99
72585;BME280;60618;40.084;32.908;2023-04-04T09:50:02;88828.97;;;16.34;34.49
72585;BME280;60618;40.084;32.908;2023-04-04T09:52:32;88807.84;;;16.17;33.21
72585;BME280;60618;40.084;32.908;2023-04-04T09:55:01;88803.41;;;16.20;32.97
72585;BME280;60618;40.084;32.908;2023-04-04T09:57:29;88804.66;;;16.18;34.37
72585;BME280;60618;40.084;32.908;2023-04-04T09:59:58;88789.44;;;16.00;32.65
72585;BME280;60618;40.084;32.908;2023-04-04T10:02:29;88813.19;;;15.96;33.37
72585;BME280;60618;40.084;32.908;2023-04-04T10:04:56;88790.16;;;16.01;32.90
72585;BME280;60618;40.084;32.908;2023-04-04T10:07:32;88768.66;;;16.22;34.46
72585;BME280;60618;40.084;32.908;2023-04-04T10:10:06;88787.03;;;16.31;32.59
72585;BME280;60618;40.084;32.908;2023-04-04T10:12:37;88773.13;;;16.82;34.34
72585;BME280;60618;40.084;32.908;2023-04-04T10:15:05;88770.38;;;17.02;33.70
72585;BME280;60618;40.084;32.908;2023-04-04T10:17:40;88780.19;;;16.92;32.92
72585;BME280;60618;40.084;32.908;2023-04-04T10:20:08;88763.63;;;16.81;33.60
72585;BME280;60618;40.084;32.908;2023-04-04T10:22:36;88778.03;;;16.91;33.76
72585;BME280;60618;40.084;32.908;2023-04-04T10:25:04;88780.94;;;17.00;32.23
72585;BME280;60618;40.084;32.908;2023-04-04T10:27:34;88748.38;;;17.12;32.86
72585;BME280;60618;40.084;32.908;2023-04-04T10:30:01;88766.00;;;17.20;32.81
72585;BME280;60618;40.084;32.908;2023-04-04T10:32:59;88755.53;;;17.45;32.98
72585;BME280;60618;40.084;32.908;2023-04-04T10:35:27;88747.59;;;17.40;33.90
72585;BME280;60618;40.084;32.908;2023-04-04T10:37:58;88751.38;;;17.37;33.26
72585;BME280;60618;40.084;32.908;2023-04-04T10:40:30;88750.50;;;17.49;32.30
72585;BME280;60618;40.084;32.908;2023-04-04T10:43:03;88750.47;;;17.42;33.84
72585;BME280;60618;40.084;32.908;2023-04-04T10:45:31;88751.88;;;16.99;34.34
72585;BME280;60618;40.084;32.908;2023-04-04T10:47:58;88743.81;;;16.70;34.23
72585;BME280;60618;40.084;32.908;2023-04-04T10:50:27;88755.00;;;16.82;35.67
72585;BME280;60618;40.084;32.908;2023-04-04T10:52:54;88738.53;;;16.86;35.13
72585;BME280;60618;40.084;32.908;2023-04-04T10:55:22;88734.50;;;16.71;35.39
72585;BME280;60618;40.084;32.908;2023-04-04T10:57:50;88735.81;;;16.57;35.03
72585;BME280;60618;40.084;32.908;2023-04-04T11:00:18;88736.97;;;16.69;37.20
72585;BME280;60618;40.084;32.908;2023-04-04T11:05:22;88744.78;;;16.60;35.93
72585;BME280;60618;40.084;32.908;2023-04-04T11:13:12;88703.78;;;16.67;36.37
72585;BME280;60618;40.084;32.908;2023-04-04T11:18:21;88682.38;;;17.18;35.96
72585;BME280;60618;40.084;32.908;2023-04-04T11:21:02;88677.28;;;17.51;35.79
72585;BME280;60618;40.084;32.908;2023-04-04T11:29:01;88652.09;;;18.00;32.89
72585;BME280;60618;40.084;32.908;2023-04-04T11:31:32;88645.78;;;18.05;33.46
72585;BME280;60618;40.084;32.908;2023-04-04T11:34:08;88632.66;;;17.78;32.90
72585;BME280;60618;40.084;32.908;2023-04-04T11:42:06;88602.16;;;17.99;33.41
72585;BME280;60618;40.084;32.908;2023-04-04T11:44:39;88601.25;;;18.04;33.93
72585;BME280;60618;40.084;32.908;2023-04-04T11:49:35;88573.25;;;18.07;33.78
72585;BME280;60618;40.084;32.908;2023-04-04T11:52:09;88578.41;;;18.43;32.70
72585;BME280;60618;40.084;32.908;2023-04-04T11:54:38;88581.94;;;18.61;31.74
72585;BME280;60618;40.084;32.908;2023-04-04T11:57:06;88563.25;;;18.70;29.01
72585;BME280;60618;40.084;32.908;2023-04-04T11:59:37;88570.56;;;18.85;27.95
72585;BME280;60618;40.084;32.908;2023-04-04T12:02:06;88534.97;;;18.79;25.62
72585;BME280;60618;40.084;32.908;2023-04-04T12:04:33;88541.66;;;18.78;24.79
72585;BME280;60618;40.084;32.908;2023-04-04T12:07:05;88540.75;;;18.76;24.17
72585;BME280;60618;40.084;32.908;2023-04-04T12:09:33;88537.88;;;18.74;24.23
72585;BME280;60618;40.084;32.908;2023-04-04T12:12:00;88524.78;;;18.70;25.36
72585;BME280;60618;40.084;32.908;2023-04-04T12:14:27;88528.72;;;18.69;24.72
72585;BME280;60618;40.084;32.908;2023-04-04T12:16:55;88520.09;;;18.70;23.59
72585;BME280;60618;40.084;32.908;2023-04-04T12:19:23;88514.66;;;18.78;22.26
72585;BME280;60618;40.084;32.908;2023-04-04T12:21:50;88509.47;;;18.73;22.78
72585;BME280;60618;40.084;32.908;2023-04-04T12:24:18;88514.69;;;18.70;22.41
72585;BME280;60618;40.084;32.908;2023-04-04T12:26:49;88484.13;;;18.68;22.51
72585;BME280;60618;40.084;32.908;2023-04-04T12:29:17;88502.13;;;18.58;23.54
72585;BME280;60618;40.084;32.908;2023-04-04T12:31:46;88504.81;;;18.58;23.50
72585;BME280;60618;40.084;32.908;2023-04-04T12:34:16;88492.81;;;18.51;23.74
72585;BME280;60618;40.084;32.908;2023-04-04T12:36:46;88486.88;;;18.53;23.93
72585;BME280;60618;40.084;32.908;2023-04-04T12:39:14;88477.94;;;18.35;25.07
72585;BME280;60618;40.084;32.908;2023-04-04T12:41:57;88494.25;;;18.44;23.35
72585;BME280;60618;40.084;32.908;2023-04-04T12:44:35;88467.31;;;18.44;23.33
72585;BME280;60618;40.084;32.908;2023-04-04T12:47:04;88471.97;;;18.44;23.21
72585;BME280;60618;40.084;32.908;2023-04-04T12:49:41;88462.66;;;18.37;24.46
72585;BME280;60618;40.084;32.908;2023-04-04T12:52:17;88466.06;;;18.38;23.67
72585;BME280;60618;40.084;32.908;2023-04-04T12:54:45;88481.75;;;18.24;24.56
72585;BME280;60618;40.084;32.908;2023-04-04T12:57:17;88464.34;;;18.10;25.88
72585;BME280;60618;40.084;32.908;2023-04-04T12:59:46;88463.13;;;18.03;25.92
72585;BME280;60618;40.084;32.908;2023-04-04T13:02:16;88471.56;;;18.07;25.87
72585;BME280;60618;40.084;32.908;2023-04-04T13:04:51;88465.47;;;18.07;26.40
72585;BME280;60618;40.084;32.908;2023-04-04T13:07:30;88472.09;;;18.06;28.38
72585;BME280;60618;40.084;32.908;2023-04-04T13:10:01;88463.50;;;18.00;28.36
72585;BME280;60618;40.084;32.908;2023-04-04T13:12:51;88469.59;;;17.93;28.83
72585;BME280;60618;40.084;32.908;2023-04-04T13:15:18;88463.34;;;17.82;29.87
72585;BME280;60618;40.084;32.908;2023-04-04T13:17:46;88487.56;;;17.67;30.77
72585;BME280;60618;40.084;32.908;2023-04-04T13:20:16;88466.19;;;17.69;30.46
72585;BME280;60618;40.084;32.908;2023-04-04T13:22:43;88451.50;;;17.55;31.44